createdAt,value
2019-03-24T00:00:23.829Z,94.6
2019-03-24T00:01:23.674Z,95.08
2019-03-24T00:02:23.700Z,94.98
2019-03-24T00:03:23.719Z,94.7
2019-03-24T00:04:23.692Z,94.6
2019-03-24T00:05:23.652Z,95.56
2019-03-24T00:06:23.639Z,94.98
2019-03-24T00:07:23.627Z,94.79
2019-03-24T00:08:23.622Z,94.98
2019-03-24T00:09:23.653Z,95.46
2019-03-24T00:10:23.669Z,94.89
2019-03-24T00:11:23.681Z,94.89
2019-03-24T00:12:23.648Z,95.08
2019-03-24T00:13:24.923Z,95.27
2019-03-24T00:14:23.630Z,95.56
2019-03-24T00:15:28.820Z,95.27
2019-03-24T00:16:23.624Z,95.65
2019-03-24T00:17:23.600Z,95.36
2019-03-24T00:18:23.720Z,95.75
2019-03-24T00:19:23.576Z,95.46
2019-03-24T00:20:23.556Z,95.84
2019-03-24T00:21:23.548Z,95.94
2019-03-24T00:22:23.625Z,95.84
2019-03-24T00:23:23.641Z,95.65
2019-03-24T00:24:23.533Z,96.69
2019-03-24T00:25:23.554Z,96.41
2019-03-24T00:26:25.899Z,96.89
2019-03-24T00:27:23.520Z,96.31
2019-03-24T00:28:23.470Z,96.69
2019-03-24T00:29:23.518Z,97.55
2019-03-24T00:30:23.557Z,97.27
2019-03-24T00:31:23.549Z,96.89
2019-03-24T00:32:23.497Z,97.64
2019-03-24T00:33:24.438Z,97.45
2019-03-24T00:34:23.189Z,97.45
2019-03-24T00:35:23.419Z,96.69
2019-03-24T00:36:23.448Z,96.69
2019-03-24T00:37:23.418Z,97.27
2019-03-24T00:38:23.481Z,97.12
2019-03-24T00:39:23.455Z,98.22
2019-03-24T00:40:23.368Z,97.88
2019-03-24T00:41:23.155Z,97.6
2019-03-24T00:42:23.182Z,98.07
2019-03-24T00:43:23.174Z,98.31
2019-03-24T00:44:23.470Z,99.02
2019-03-24T00:45:23.445Z,98.83
2019-03-24T00:46:23.487Z,98.83
2019-03-24T00:47:23.437Z,98.64
2019-03-24T00:48:23.166Z,98.64
2019-03-24T00:49:23.387Z,98.93
2019-03-24T00:50:23.119Z,98.07
2019-03-24T00:51:23.389Z,98.36
2019-03-24T00:52:23.414Z,98.17
2019-03-24T00:53:23.349Z,98.45
2019-03-24T00:54:23.338Z,98.36
2019-03-24T00:55:23.356Z,98.93
2019-03-24T00:56:23.347Z,98.93
2019-03-24T00:57:22.995Z,98.64
2019-03-24T00:58:23.248Z,98.64
2019-03-24T00:59:23.073Z,98.36
2019-03-24T01:00:23.329Z,99.4
2019-03-24T01:01:23.260Z,99.02
2019-03-24T01:02:23.258Z,99.69
2019-03-24T01:03:23.285Z,98.83
2019-03-24T01:04:22.971Z,99.21
2019-03-24T01:05:23.007Z,99.21
2019-03-24T01:06:23.008Z,99.78
2019-03-24T01:07:23.277Z,99.88
2019-03-24T01:08:23.261Z,99.99
2019-03-24T01:09:23.232Z,99.99
2019-03-24T01:10:23.244Z,99.88
2019-03-24T01:11:23.240Z,99.97
2019-03-24T01:12:22.919Z,99.99
2019-03-24T01:13:22.936Z,99.99
2019-03-24T01:14:23.183Z,99.99
2019-03-24T01:15:23.136Z,99.99
2019-03-24T01:16:22.906Z,99.99
2019-03-24T01:17:23.187Z,99.99
2019-03-24T01:18:23.176Z,99.99
2019-03-24T01:19:23.181Z,99.99
2019-03-24T01:20:22.887Z,99.99
2019-03-24T01:21:22.911Z,99.99
2019-03-24T01:22:23.140Z,99.99
2019-03-24T01:23:22.859Z,99.99
2019-03-24T01:24:23.132Z,99.99
2019-03-24T01:25:23.069Z,99.99
2019-03-24T01:26:23.098Z,99.99
2019-03-24T01:27:23.068Z,99.99
2019-03-24T01:28:22.820Z,99.99
2019-03-24T01:29:22.770Z,99.99
2019-03-24T01:30:23.087Z,99.99
2019-03-24T01:31:23.135Z,99.99
2019-03-24T01:32:23.041Z,99.99
2019-03-24T01:33:22.740Z,99.99
2019-03-24T01:34:23.023Z,99.99
2019-03-24T01:35:22.990Z,99.99
2019-03-24T01:36:23.090Z,99.99
2019-03-24T01:37:22.994Z,99.99
2019-03-24T01:38:23.056Z,99.99
2019-03-24T01:39:23.051Z,99.99
2019-03-24T01:40:23.070Z,99.99
2019-03-24T01:41:23.016Z,99.99
2019-03-24T01:42:22.949Z,99.99
2019-03-24T01:43:22.977Z,99.99
2019-03-24T01:44:22.660Z,99.99
2019-03-24T01:45:22.749Z,99.99
2019-03-24T01:46:22.986Z,99.99
2019-03-24T01:47:22.922Z,99.99
2019-03-24T01:48:22.917Z,99.99
2019-03-24T01:49:22.918Z,99.99
2019-03-24T01:50:22.889Z,99.99
2019-03-24T01:51:22.888Z,99.99
2019-03-24T01:52:22.606Z,99.99
2019-03-24T01:53:22.602Z,99.99
2019-03-24T01:54:22.730Z,99.99
2019-03-24T01:55:22.620Z,99.99
2019-03-24T01:56:22.619Z,99.99
2019-03-24T01:57:22.834Z,99.99
2019-03-24T01:58:22.846Z,99.99
2019-03-24T01:59:22.812Z,99.99
2019-03-24T02:00:22.548Z,99.99
2019-03-24T02:01:22.862Z,99.99
2019-03-24T02:02:22.853Z,99.99
2019-03-24T02:03:22.771Z,99.99
2019-03-24T02:04:22.844Z,99.99
2019-03-24T02:05:22.521Z,99.99
2019-03-24T02:06:22.753Z,99.99
2019-03-24T02:07:22.740Z,99.99
2019-03-24T02:08:22.763Z,99.99
2019-03-24T02:09:22.882Z,99.99
2019-03-24T02:10:22.786Z,99.99
2019-03-24T02:11:22.536Z,99.99
2019-03-24T02:12:22.775Z,99.99
2019-03-24T02:13:22.779Z,99.99
2019-03-24T02:14:22.761Z,99.99
2019-03-24T02:15:22.720Z,99.99
2019-03-24T02:16:22.743Z,99.99
2019-03-24T02:17:22.706Z,99.99
2019-03-24T02:18:22.712Z,99.99
2019-03-24T02:19:22.784Z,99.99
2019-03-24T02:20:22.698Z,99.99
2019-03-24T02:21:22.698Z,99.99
2019-03-24T02:22:22.715Z,99.99
2019-03-24T02:23:22.453Z,99.99
2019-03-24T02:24:22.718Z,99.99
2019-03-24T02:25:22.641Z,99.99
2019-03-24T02:26:22.640Z,99.99
2019-03-24T02:27:22.641Z,99.99
2019-03-24T02:28:22.643Z,99.99
2019-03-24T02:29:22.343Z,99.99
2019-03-24T02:30:22.644Z,99.99
2019-03-24T02:31:22.622Z,99.99
2019-03-24T02:32:22.628Z,99.99
2019-03-24T02:33:22.558Z,99.99
2019-03-24T02:34:22.583Z,99.99
2019-03-24T02:35:22.575Z,99.99
2019-03-24T02:36:22.610Z,99.99
2019-03-24T02:37:22.552Z,99.99
2019-03-24T02:38:22.736Z,99.99
2019-03-24T02:39:22.579Z,99.99
2019-03-24T02:40:22.526Z,99.99
2019-03-24T02:41:22.491Z,99.99
2019-03-24T02:42:22.478Z,99.99
2019-03-24T02:43:22.465Z,99.99
2019-03-24T02:44:22.467Z,99.99
2019-03-24T02:45:22.204Z,99.99
2019-03-24T02:46:27.271Z,99.99
2019-03-24T02:47:22.443Z,99.99
2019-03-24T02:48:22.174Z,99.99
2019-03-24T02:49:22.425Z,99.99
2019-03-24T02:50:22.432Z,99.99
2019-03-24T02:51:22.408Z,99.99
2019-03-24T02:52:22.404Z,99.99
2019-03-24T02:53:22.389Z,99.99
2019-03-24T02:54:22.390Z,99.99
2019-03-24T02:55:22.125Z,99.99
2019-03-24T02:56:22.379Z,99.99
2019-03-24T02:57:22.358Z,99.99
2019-03-24T02:58:22.358Z,99.99
2019-03-24T02:59:22.340Z,99.99
2019-03-24T03:00:22.345Z,99.99
2019-03-24T03:01:22.341Z,99.99
2019-03-24T03:02:22.339Z,99.99
2019-03-24T03:03:22.308Z,99.99
2019-03-24T03:04:22.354Z,99.99
2019-03-24T03:05:22.357Z,99.99
2019-03-24T03:06:22.317Z,99.99
2019-03-24T03:07:22.292Z,99.99
2019-03-24T03:08:22.282Z,99.99
2019-03-24T03:09:22.267Z,99.99
2019-03-24T03:10:22.303Z,99.99
2019-03-24T03:11:22.010Z,99.99
2019-03-24T03:12:22.000Z,99.99
2019-03-24T03:13:22.234Z,99.99
2019-03-24T03:14:22.221Z,99.99
2019-03-24T03:15:22.211Z,99.99
2019-03-24T03:16:22.212Z,99.99
2019-03-24T03:17:21.970Z,99.99
2019-03-24T03:18:22.222Z,99.99
2019-03-24T03:19:22.192Z,99.99
2019-03-24T03:20:21.938Z,99.99
2019-03-24T03:21:22.170Z,99.99
2019-03-24T03:22:21.909Z,99.99
2019-03-24T03:23:21.897Z,99.99
2019-03-24T03:24:21.915Z,99.99
2019-03-24T03:25:22.144Z,99.99
2019-03-24T03:26:22.130Z,99.99
2019-03-24T03:27:22.119Z,99.99
2019-03-24T03:28:21.901Z,99.99
2019-03-24T03:29:22.105Z,99.99
2019-03-24T03:30:22.130Z,99.99
2019-03-24T03:31:22.122Z,99.99
2019-03-24T03:32:22.139Z,99.99
2019-03-24T03:33:22.150Z,99.99
2019-03-24T03:34:21.902Z,99.99
2019-03-24T03:35:22.126Z,99.99
2019-03-24T03:36:21.829Z,99.99
2019-03-24T03:37:21.806Z,99.99
2019-03-24T03:38:22.048Z,99.99
2019-03-24T03:39:22.050Z,99.99
2019-03-24T03:40:22.132Z,99.99
2019-03-24T03:41:21.759Z,99.99
2019-03-24T03:42:21.995Z,99.99
2019-03-24T03:43:21.982Z,99.99
2019-03-24T03:44:21.723Z,99.99
2019-03-24T03:45:21.974Z,99.99
2019-03-24T03:46:21.971Z,99.99
2019-03-24T03:47:21.954Z,99.99
2019-03-24T03:48:21.957Z,99.99
2019-03-24T03:49:21.952Z,99.99
2019-03-24T03:50:21.932Z,99.99
2019-03-24T03:51:21.694Z,99.99
2019-03-24T03:52:21.666Z,99.99
2019-03-24T03:53:21.916Z,99.99
2019-03-24T03:54:21.908Z,99.99
2019-03-24T03:55:21.645Z,99.99
2019-03-24T03:56:21.896Z,99.99
2019-03-24T03:57:21.870Z,99.99
2019-03-24T03:58:21.994Z,99.99
2019-03-24T03:59:21.606Z,99.99
2019-03-24T04:00:21.849Z,99.99
2019-03-24T04:01:21.591Z,99.99
2019-03-24T04:02:21.591Z,99.99
2019-03-24T04:03:21.845Z,99.99
2019-03-24T04:04:21.806Z,99.99
2019-03-24T04:05:22.115Z,99.99
2019-03-24T04:06:21.858Z,99.99
2019-03-24T04:07:21.789Z,99.99
2019-03-24T04:08:21.773Z,99.99
2019-03-24T04:09:22.651Z,99.99
2019-03-24T04:10:21.520Z,99.99
2019-03-24T04:11:21.741Z,99.99
2019-03-24T04:12:21.736Z,99.99
2019-03-24T04:13:21.751Z,99.99
2019-03-24T04:14:21.735Z,99.99
2019-03-24T04:15:21.793Z,99.99
2019-03-24T04:16:21.724Z,99.99
2019-03-24T04:17:21.703Z,99.99
2019-03-24T04:18:21.716Z,99.99
2019-03-24T04:19:21.697Z,99.99
2019-03-24T04:20:21.685Z,99.99
2019-03-24T04:21:21.657Z,99.99
2019-03-24T04:22:21.406Z,99.99
2019-03-24T04:23:21.471Z,99.99
2019-03-24T04:24:22.032Z,99.99
2019-03-24T04:25:21.731Z,99.99
2019-03-24T04:26:21.668Z,99.99
2019-03-24T04:27:21.387Z,99.99
2019-03-24T04:28:21.423Z,99.99
2019-03-24T04:29:21.643Z,99.99
2019-03-24T04:30:23.117Z,99.99
2019-03-24T04:31:21.613Z,99.99
2019-03-24T04:32:21.365Z,99.99
2019-03-24T04:33:21.607Z,99.99
2019-03-24T04:34:21.569Z,99.99
2019-03-24T04:35:21.315Z,99.99
2019-03-24T04:36:21.542Z,99.99
2019-03-24T04:37:21.282Z,99.99
2019-03-24T04:38:21.301Z,99.99
2019-03-24T04:39:21.279Z,99.99
2019-03-24T04:40:21.496Z,99.99
2019-03-24T04:41:21.502Z,99.99
2019-03-24T04:42:21.490Z,99.99
2019-03-24T04:43:21.490Z,99.99
2019-03-24T04:44:21.472Z,99.99
2019-03-24T04:45:21.207Z,99.99
2019-03-24T04:46:21.193Z,99.99
2019-03-24T04:47:21.194Z,99.99
2019-03-24T04:48:21.432Z,99.99
2019-03-24T04:49:21.182Z,99.99
2019-03-24T04:50:21.175Z,99.99
2019-03-24T04:51:21.153Z,99.99
2019-03-24T04:52:21.392Z,99.99
2019-03-24T04:53:22.965Z,99.99
2019-03-24T04:54:21.387Z,99.99
2019-03-24T04:55:21.374Z,99.99
2019-03-24T04:56:21.367Z,99.99
2019-03-24T04:57:21.106Z,99.99
2019-03-24T04:58:21.346Z,99.99
2019-03-24T04:59:21.088Z,99.99
2019-03-24T05:00:21.329Z,99.99
2019-03-24T05:01:21.066Z,99.99
2019-03-24T05:02:21.306Z,99.99
2019-03-24T05:03:21.069Z,99.99
2019-03-24T05:04:21.052Z,99.99
2019-03-24T05:05:21.288Z,99.99
2019-03-24T05:06:21.284Z,99.99
2019-03-24T05:07:21.271Z,99.99
2019-03-24T05:08:21.253Z,99.99
2019-03-24T05:09:21.251Z,99.99
2019-03-24T05:10:21.247Z,99.99
2019-03-24T05:11:20.998Z,99.99
2019-03-24T05:12:20.990Z,99.99
2019-03-24T05:13:20.976Z,99.99
2019-03-24T05:14:21.208Z,99.99
2019-03-24T05:15:20.954Z,99.99
2019-03-24T05:16:21.189Z,99.99
2019-03-24T05:17:29.427Z,99.99
2019-03-24T05:18:20.922Z,99.99
2019-03-24T05:19:21.177Z,99.99
2019-03-24T05:20:20.902Z,99.99
2019-03-24T05:21:20.917Z,99.99
2019-03-24T05:22:21.145Z,99.99
2019-03-24T05:23:21.148Z,99.99
2019-03-24T05:24:21.135Z,99.99
2019-03-24T05:25:20.880Z,99.99
2019-03-24T05:26:21.121Z,99.99
2019-03-24T05:27:20.874Z,99.99
2019-03-24T05:28:21.085Z,99.99
2019-03-24T05:29:20.822Z,99.99
2019-03-24T05:30:21.068Z,99.99
2019-03-24T05:31:20.808Z,99.99
2019-03-24T05:32:21.050Z,99.99
2019-03-24T05:33:21.062Z,99.99
2019-03-24T05:34:21.028Z,99.99
2019-03-24T05:35:21.030Z,99.99
2019-03-24T05:36:21.008Z,99.99
2019-03-24T05:37:20.761Z,99.99
2019-03-24T05:38:20.993Z,99.99
2019-03-24T05:39:20.987Z,99.99
2019-03-24T05:40:20.759Z,99.99
2019-03-24T05:41:20.969Z,99.99
2019-03-24T05:42:20.956Z,99.99
2019-03-24T05:43:20.945Z,99.99
2019-03-24T05:44:20.947Z,99.99
2019-03-24T05:45:20.696Z,99.99
2019-03-24T05:46:20.926Z,99.99
2019-03-24T05:47:20.925Z,99.99
2019-03-24T05:48:20.906Z,99.99
2019-03-24T05:49:20.702Z,99.99
2019-03-24T05:50:20.669Z,99.99
2019-03-24T05:51:20.887Z,99.99
2019-03-24T05:52:20.623Z,99.99
2019-03-24T05:53:20.869Z,99.99
2019-03-24T05:54:20.868Z,99.99
2019-03-24T05:55:20.600Z,99.99
2019-03-24T05:56:20.835Z,99.99
2019-03-24T05:57:20.825Z,99.99
2019-03-24T05:58:20.822Z,99.99
2019-03-24T05:59:20.810Z,99.99
2019-03-24T06:00:20.809Z,99.99
2019-03-24T06:01:20.798Z,99.99
2019-03-24T06:02:20.811Z,99.99
2019-03-24T06:03:20.545Z,99.99
2019-03-24T06:04:20.772Z,99.99
2019-03-24T06:05:20.528Z,99.99
2019-03-24T06:06:20.583Z,99.99
2019-03-24T06:07:20.520Z,99.99
2019-03-24T06:08:20.743Z,99.99
2019-03-24T06:09:20.739Z,99.99
2019-03-24T06:10:20.477Z,99.99
2019-03-24T06:11:20.712Z,99.99
2019-03-24T06:12:20.708Z,99.99
2019-03-24T06:13:20.704Z,99.99
2019-03-24T06:14:20.705Z,99.99
2019-03-24T06:15:20.450Z,99.99
2019-03-24T06:16:20.684Z,99.99
2019-03-24T06:17:20.681Z,99.87
2019-03-24T06:18:20.651Z,98.92
2019-03-24T06:19:20.648Z,99.11
2019-03-24T06:20:20.410Z,99.11
2019-03-24T06:21:20.634Z,98.45
2019-03-24T06:22:20.624Z,97.97
2019-03-24T06:23:20.622Z,98.4
2019-03-24T06:24:20.614Z,97.64
2019-03-24T06:25:20.628Z,97.55
2019-03-24T06:26:20.599Z,97.17
2019-03-24T06:27:20.588Z,97.36
2019-03-24T06:28:20.583Z,96.88
2019-03-24T06:29:20.576Z,96.6
2019-03-24T06:30:20.315Z,96.22
2019-03-24T06:31:20.315Z,95.75
2019-03-24T06:32:20.542Z,95.55
2019-03-24T06:33:20.543Z,96.22
2019-03-24T06:34:20.532Z,95.55
2019-03-24T06:35:20.528Z,95.65
2019-03-24T06:36:20.526Z,95.08
2019-03-24T06:37:20.519Z,95.75
2019-03-24T06:38:20.500Z,95.84
2019-03-24T06:39:20.494Z,94.89
2019-03-24T06:40:22.285Z,94.98
2019-03-24T06:41:20.496Z,94.7
2019-03-24T06:42:20.478Z,94.6
2019-03-24T06:43:20.480Z,93.94
2019-03-24T06:44:20.467Z,94.32
2019-03-24T06:45:30.898Z,94.32
2019-03-24T06:46:20.456Z,93.37
2019-03-24T06:47:20.192Z,93.27
2019-03-24T06:48:20.439Z,93.27
2019-03-24T06:49:20.441Z,92.8
2019-03-24T06:50:20.444Z,92.51
2019-03-24T06:51:20.181Z,92.71
2019-03-24T06:52:20.169Z,91.66
2019-03-24T06:53:20.402Z,92.32
2019-03-24T06:54:20.396Z,91.71
2019-03-24T06:55:20.403Z,91.33
2019-03-24T06:56:20.385Z,91.04
2019-03-24T06:57:20.375Z,90.28
2019-03-24T06:58:20.369Z,89.8
2019-03-24T06:59:20.114Z,88.95
2019-03-24T07:00:20.371Z,87.47
2019-03-24T07:01:20.349Z,86.71
2019-03-24T07:02:20.341Z,86.52
2019-03-24T07:03:20.090Z,86.14
2019-03-24T07:04:20.335Z,85.61
2019-03-24T07:05:20.332Z,84.85
2019-03-24T07:06:20.326Z,84.28
2019-03-24T07:07:20.320Z,83.52
2019-03-24T07:08:20.317Z,83.04
2019-03-24T07:09:20.302Z,82.48
2019-03-24T07:10:20.300Z,82.8
2019-03-24T07:11:20.044Z,81.56
2019-03-24T07:12:20.287Z,80.71
2019-03-24T07:13:20.290Z,80.71
2019-03-24T07:14:20.041Z,79.75
2019-03-24T07:15:20.301Z,79.13
2019-03-24T07:16:21.000Z,77.98
2019-03-24T07:17:20.267Z,77.61
2019-03-24T07:18:20.266Z,76.59
2019-03-24T07:19:20.266Z,75.16
2019-03-24T07:20:20.257Z,74.02
2019-03-24T07:21:20.004Z,72.82
2019-03-24T07:22:20.254Z,72.44
2019-03-24T07:23:20.000Z,71.11
2019-03-24T07:24:20.241Z,71.14
2019-03-24T07:25:20.242Z,71.23
2019-03-24T07:26:20.235Z,70.28
2019-03-24T07:27:19.981Z,69.43
2019-03-24T07:28:20.233Z,69.23
2019-03-24T07:29:20.227Z,69.33
2019-03-24T07:30:19.977Z,69.52
2019-03-24T07:31:20.230Z,69.04
2019-03-24T07:32:20.214Z,68.51
2019-03-24T07:33:20.227Z,68.32
2019-03-24T07:34:20.230Z,67.83
2019-03-24T07:35:20.854Z,66.88
2019-03-24T07:36:20.210Z,66.5
2019-03-24T07:37:20.204Z,66.44
2019-03-24T07:38:19.957Z,66.06
2019-03-24T07:39:20.199Z,66.02
2019-03-24T07:40:20.206Z,65.67
2019-03-24T07:41:20.210Z,65.77
2019-03-24T07:42:19.974Z,65.3
2019-03-24T07:43:20.202Z,64.81
2019-03-24T07:44:19.953Z,64.09
2019-03-24T07:45:20.193Z,63.99
2019-03-24T07:46:20.199Z,63.7
2019-03-24T07:47:20.998Z,63.99
2019-03-24T07:48:21.727Z,63.32
2019-03-24T07:49:19.943Z,62.65
2019-03-24T07:50:20.199Z,62.68
2019-03-24T07:51:20.198Z,62.59
2019-03-24T07:52:20.197Z,62.49
2019-03-24T07:53:20.200Z,62.11
2019-03-24T07:54:20.198Z,61.54
2019-03-24T07:55:19.953Z,61.35
2019-03-24T07:56:20.186Z,61.63
2019-03-24T07:57:20.202Z,61.35
2019-03-24T07:58:20.200Z,61.82
2019-03-24T07:59:19.945Z,61.72
2019-03-24T08:00:20.193Z,60.52
2019-03-24T08:01:20.190Z,60.13
2019-03-24T08:02:20.201Z,59.66
2019-03-24T08:03:20.213Z,59.08
2019-03-24T08:04:20.201Z,58.63
2019-03-24T08:05:20.188Z,59.18
2019-03-24T08:06:20.197Z,58.98
2019-03-24T08:07:21.045Z,59.47
2019-03-24T08:08:20.186Z,59.66
2019-03-24T08:09:20.191Z,59.49
2019-03-24T08:10:20.208Z,58.83
2019-03-24T08:11:20.198Z,58.34
2019-03-24T08:12:20.206Z,57.77
2019-03-24T08:13:20.221Z,57.9
2019-03-24T08:14:20.191Z,57.13
2019-03-24T08:15:20.216Z,56.2
2019-03-24T08:16:20.231Z,55.53
2019-03-24T08:17:20.193Z,55.73
2019-03-24T08:18:29.454Z,55.53
2019-03-24T08:19:19.946Z,55.53
2019-03-24T08:20:20.205Z,55.24
2019-03-24T08:21:20.227Z,55.15
2019-03-24T08:22:19.951Z,54.79
2019-03-24T08:23:19.956Z,54.41
2019-03-24T08:24:20.198Z,54.22
2019-03-24T08:25:21.309Z,54.12
2019-03-24T08:26:19.976Z,54.03
2019-03-24T08:27:19.958Z,54.41
2019-03-24T08:28:20.204Z,55.24
2019-03-24T08:29:20.218Z,56.3
2019-03-24T08:30:19.957Z,57.99
2019-03-24T08:31:20.221Z,58.83
2019-03-24T08:32:19.969Z,60.23
2019-03-24T08:33:20.245Z,61.09
2019-03-24T08:34:20.275Z,62.78
2019-03-24T08:35:19.981Z,64.09
2019-03-24T08:36:20.217Z,66.15
2019-03-24T08:37:20.214Z,67.68
2019-03-24T08:38:20.220Z,68.98
2019-03-24T08:39:20.220Z,70.61
2019-03-24T08:40:19.999Z,72.19
2019-03-24T08:41:20.232Z,74.01
2019-03-24T08:42:20.226Z,74.67
2019-03-24T08:43:20.236Z,74.19
2019-03-24T08:44:20.221Z,74.19
2019-03-24T08:45:20.008Z,74.77
2019-03-24T08:46:20.221Z,75.43
2019-03-24T08:47:20.254Z,76.1
2019-03-24T08:48:20.243Z,76.96
2019-03-24T08:49:20.211Z,77.72
2019-03-24T08:50:20.228Z,77.15
2019-03-24T08:51:20.215Z,76.48
2019-03-24T08:52:20.211Z,76.39
2019-03-24T08:53:20.257Z,76.14
2019-03-24T08:54:20.207Z,76.04
2019-03-24T08:55:20.229Z,75.37
2019-03-24T08:56:20.205Z,74.13
2019-03-24T08:57:20.199Z,74.32
2019-03-24T08:58:19.948Z,75.37
2019-03-24T08:59:20.198Z,76.14
2019-03-24T09:00:30.076Z,77.09
2019-03-24T09:01:19.943Z,77.44
2019-03-24T09:02:19.939Z,78.2
2019-03-24T09:03:20.191Z,78.39
2019-03-24T09:04:19.993Z,78.39
2019-03-24T09:05:20.050Z,78.92
2019-03-24T09:06:20.198Z,78.92
2019-03-24T09:07:19.939Z,79.3
2019-03-24T09:08:20.439Z,79.3
2019-03-24T09:09:20.177Z,79.68
2019-03-24T09:10:20.170Z,80.26
2019-03-24T09:11:30.607Z,79.68
2019-03-24T09:12:20.172Z,78.01
2019-03-24T09:13:20.171Z,77.62
2019-03-24T09:14:20.163Z,77.34
2019-03-24T09:15:20.161Z,77.82
2019-03-24T09:16:19.903Z,77.82
2019-03-24T09:17:20.151Z,78.49
2019-03-24T09:18:20.163Z,78.58
2019-03-24T09:19:20.154Z,78.39
2019-03-24T09:20:19.902Z,77.72
2019-03-24T09:21:22.087Z,76.52
2019-03-24T09:22:20.137Z,75.57
2019-03-24T09:23:19.893Z,74.13
2019-03-24T09:24:19.888Z,73.88
2019-03-24T09:25:20.258Z,73.41
2019-03-24T09:26:20.144Z,73.6
2019-03-24T09:27:20.157Z,73.32
2019-03-24T09:28:20.679Z,73.03
2019-03-24T09:29:19.874Z,72.55
2019-03-24T09:30:20.119Z,73.03
2019-03-24T09:31:20.128Z,72.93
2019-03-24T09:32:19.894Z,73.32
2019-03-24T09:33:19.879Z,73.6
2019-03-24T09:34:20.114Z,73.69
2019-03-24T09:35:20.124Z,74.27
2019-03-24T09:36:20.113Z,74.27
2019-03-24T09:37:20.104Z,73.41
2019-03-24T09:38:23.355Z,73.12
2019-03-24T09:39:20.110Z,72.55
2019-03-24T09:40:21.138Z,72.01
2019-03-24T09:41:19.856Z,71.72
2019-03-24T09:42:19.854Z,70.87
2019-03-24T09:43:19.858Z,71.44
2019-03-24T09:44:19.854Z,71.34
2019-03-24T09:45:19.849Z,71.15
2019-03-24T09:46:20.079Z,71.15
2019-03-24T09:47:19.840Z,72.07
2019-03-24T09:48:19.832Z,72.74
2019-03-24T09:49:19.849Z,73.22
2019-03-24T09:50:19.835Z,73.32
2019-03-24T09:51:21.145Z,72.83
2019-03-24T09:52:20.074Z,73.41
2019-03-24T09:53:20.072Z,73.32
2019-03-24T09:54:20.086Z,73.98
2019-03-24T09:55:20.065Z,73.5
2019-03-24T09:56:19.815Z,74.17
2019-03-24T09:57:20.058Z,73.12
2019-03-24T09:58:20.059Z,73.03
2019-03-24T09:59:20.053Z,73.32
2019-03-24T10:00:20.065Z,73.98
2019-03-24T10:01:20.052Z,73.6
2019-03-24T10:02:20.075Z,73.32
2019-03-24T10:03:19.811Z,73.32
2019-03-24T10:04:20.047Z,73.22
2019-03-24T10:05:20.116Z,73.5
2019-03-24T10:06:19.802Z,73.88
2019-03-24T10:07:20.042Z,73.5
2019-03-24T10:08:20.037Z,74.27
2019-03-24T10:09:20.036Z,74.17
2019-03-24T10:10:20.026Z,74.27
2019-03-24T10:11:19.777Z,73.88
2019-03-24T10:12:20.030Z,74.17
2019-03-24T10:13:19.796Z,74.37
2019-03-24T10:14:19.780Z,73.69
2019-03-24T10:15:20.033Z,73.98
2019-03-24T10:16:20.013Z,73.69
2019-03-24T10:17:20.016Z,73.6
2019-03-24T10:18:20.014Z,73.32
2019-03-24T10:19:20.011Z,73.32
2019-03-24T10:20:20.011Z,73.41
2019-03-24T10:21:20.003Z,72.93
2019-03-24T10:22:19.998Z,73.12
2019-03-24T10:23:20.002Z,73.07
2019-03-24T10:24:19.753Z,72.2
2019-03-24T10:25:19.997Z,71.44
2019-03-24T10:26:19.746Z,71.34
2019-03-24T10:27:19.990Z,71.15
2019-03-24T10:28:19.743Z,71.15
2019-03-24T10:29:19.981Z,71.06
2019-03-24T10:30:19.755Z,71.44
2019-03-24T10:31:19.733Z,71.19
2019-03-24T10:32:19.743Z,71.19
2019-03-24T10:33:19.748Z,70.9
2019-03-24T10:34:19.741Z,71.47
2019-03-24T10:35:19.978Z,71
2019-03-24T10:36:20.017Z,70.9
2019-03-24T10:37:19.965Z,70.71
2019-03-24T10:38:19.964Z,70.52
2019-03-24T10:39:19.725Z,70.27
2019-03-24T10:40:30.326Z,69.89
2019-03-24T10:41:19.957Z,69.79
2019-03-24T10:42:19.709Z,70.46
2019-03-24T10:43:19.703Z,70.56
2019-03-24T10:44:19.950Z,70.94
2019-03-24T10:45:19.956Z,70.71
2019-03-24T10:46:19.704Z,70.9
2019-03-24T10:47:19.991Z,71.57
2019-03-24T10:48:19.953Z,71.28
2019-03-24T10:49:27.584Z,71.13
2019-03-24T10:50:19.694Z,71.22
2019-03-24T10:51:19.940Z,71.42
2019-03-24T10:52:19.707Z,71.22
2019-03-24T10:53:19.696Z,71.61
2019-03-24T10:54:19.941Z,71.42
2019-03-24T10:55:19.931Z,71.13
2019-03-24T10:56:19.976Z,71.51
2019-03-24T10:57:19.696Z,71.61
2019-03-24T10:58:19.928Z,71.89
2019-03-24T10:59:19.930Z,71.8
2019-03-24T11:00:19.705Z,71.42
2019-03-24T11:01:19.929Z,71.42
2019-03-24T11:02:19.925Z,71.42
2019-03-24T11:03:19.927Z,70.84
2019-03-24T11:04:19.677Z,70.75
2019-03-24T11:05:19.930Z,70.65
2019-03-24T11:06:19.930Z,71.42
2019-03-24T11:07:19.674Z,70.94
2019-03-24T11:08:19.910Z,70.27
2019-03-24T11:09:19.671Z,70.65
2019-03-24T11:10:19.662Z,70.36
2019-03-24T11:11:19.923Z,70.11
2019-03-24T11:12:19.921Z,69.89
2019-03-24T11:13:19.904Z,69.7
2019-03-24T11:14:19.914Z,69.15
2019-03-24T11:15:19.912Z,69.64
2019-03-24T11:16:19.694Z,69.73
2019-03-24T11:17:19.644Z,69.44
2019-03-24T11:18:19.925Z,70.01
2019-03-24T11:19:19.643Z,69.82
2019-03-24T11:20:19.646Z,69.31
2019-03-24T11:21:19.897Z,70.01
2019-03-24T11:22:19.894Z,69.82
2019-03-24T11:23:19.638Z,69.15
2019-03-24T11:24:19.629Z,68.68
2019-03-24T11:25:19.882Z,68.1
2019-03-24T11:26:19.879Z,67.63
2019-03-24T11:27:19.887Z,67.43
2019-03-24T11:28:21.738Z,67.91
2019-03-24T11:29:19.879Z,68.29
2019-03-24T11:30:19.882Z,68.87
2019-03-24T11:31:19.881Z,68.49
2019-03-24T11:32:19.628Z,68.77
2019-03-24T11:33:19.620Z,68.49
2019-03-24T11:34:19.865Z,68.1
2019-03-24T11:35:19.619Z,67.82
2019-03-24T11:36:19.609Z,67.72
2019-03-24T11:37:19.616Z,67.91
2019-03-24T11:38:19.879Z,67.82
2019-03-24T11:39:19.864Z,67.53
2019-03-24T11:40:19.866Z,68.01
2019-03-24T11:41:19.605Z,67.56
2019-03-24T11:42:19.858Z,67.53
2019-03-24T11:43:19.606Z,67.37
2019-03-24T11:44:19.608Z,66.61
2019-03-24T11:45:19.599Z,67.08
2019-03-24T11:46:19.848Z,67.63
2019-03-24T11:47:28.942Z,68.29
2019-03-24T11:48:19.595Z,67.63
2019-03-24T11:49:19.852Z,68.01
2019-03-24T11:50:19.593Z,68.01
2019-03-24T11:51:19.851Z,68.49
2019-03-24T11:52:19.842Z,68.29
2019-03-24T11:53:19.585Z,67.53
2019-03-24T11:54:19.831Z,67.82
2019-03-24T11:55:19.838Z,67.72
2019-03-24T11:56:19.840Z,67.05
2019-03-24T11:57:19.831Z,67.14
2019-03-24T11:58:19.590Z,67.53
2019-03-24T11:59:19.832Z,67.82
2019-03-24T12:00:19.579Z,68.2
2019-03-24T12:01:19.826Z,68.29
2019-03-24T12:02:19.825Z,67.82
2019-03-24T12:03:19.574Z,67.72
2019-03-24T12:04:19.822Z,67.63
2019-03-24T12:05:19.564Z,67.43
2019-03-24T12:06:19.817Z,67.27
2019-03-24T12:07:19.814Z,67.53
2019-03-24T12:08:19.831Z,67.18
2019-03-24T12:09:19.812Z,67.08
2019-03-24T12:10:19.837Z,67.18
2019-03-24T12:11:19.567Z,66.89
2019-03-24T12:12:19.808Z,66.13
2019-03-24T12:13:19.581Z,65.55
2019-03-24T12:14:19.808Z,65.26
2019-03-24T12:15:19.555Z,65.84
2019-03-24T12:16:19.806Z,66.13
2019-03-24T12:17:19.550Z,66.22
2019-03-24T12:18:19.798Z,65.36
2019-03-24T12:19:19.545Z,65.74
2019-03-24T12:20:19.815Z,65.94
2019-03-24T12:21:19.808Z,66.8
2019-03-24T12:22:19.537Z,66.89
2019-03-24T12:23:20.993Z,66.09
2019-03-24T12:24:19.795Z,66.13
2019-03-24T12:25:19.803Z,66.09
2019-03-24T12:26:19.540Z,66.03
2019-03-24T12:27:19.544Z,65.94
2019-03-24T12:28:19.791Z,65.94
2019-03-24T12:29:19.787Z,66.03
2019-03-24T12:30:19.544Z,65.74
2019-03-24T12:31:19.791Z,65.94
2019-03-24T12:32:19.788Z,65.84
2019-03-24T12:33:19.536Z,64.4
2019-03-24T12:34:19.781Z,63.93
2019-03-24T12:35:19.520Z,63.93
2019-03-24T12:36:19.519Z,64.31
2019-03-24T12:37:19.767Z,64.31
2019-03-24T12:38:19.777Z,64.5
2019-03-24T12:39:19.781Z,65.01
2019-03-24T12:40:19.531Z,65.11
2019-03-24T12:41:19.759Z,65.88
2019-03-24T12:42:19.762Z,65.11
2019-03-24T12:43:22.270Z,64.05
2019-03-24T12:44:19.766Z,64.15
2019-03-24T12:45:19.506Z,63.96
2019-03-24T12:46:19.769Z,64.53
2019-03-24T12:47:19.507Z,65.39
2019-03-24T12:48:19.718Z,65.01
2019-03-24T12:49:19.502Z,64.43
2019-03-24T12:50:30.529Z,64.15
2019-03-24T12:51:19.749Z,63.89
2019-03-24T12:52:19.776Z,64.09
2019-03-24T12:53:19.772Z,63.76
2019-03-24T12:54:19.503Z,63.8